Time;durP1;ratioP1;P1;durP2;ratioP2;P2;SDS_P1;SDS_P2;PMS_P1;PMS_P2;Temp;Humidity;BMP_temperature;BMP_pressure;BME280_temperature;BME280_humidity;BME280_pressure;Samples;Min_cycle;Max_cycle;Signal;HPM_P1;HPM_P2
2021/04/04 00:00:31;;;;;;;;;;;0.30;88.60;;;;;;5054200;28;19979;-70
2021/04/04 00:02:56;;;;;;;;;;;0.30;88.80;;;;;;5055352;28;19935;-70
2021/04/04 00:05:22;;;;;;;;;;;0.30;88.60;;;;;;5055439;28;19921;-70
2021/04/04 00:07:47;;;;;;;;;;;0.30;88.40;;;;;;5054793;28;19913;-70
2021/04/04 00:10:13;;;;;;;;;;;0.30;88.00;;;;;;5054284;28;19966;-69
2021/04/04 00:12:39;;;;;;;;;;;0.40;87.60;;;;;;5049120;28;19947;-70
2021/04/04 00:15:06;;;;;;;;;;;0.40;87.60;;;;;;5055652;28;19921;-70
2021/04/04 00:17:32;;;;;;;;;;;0.30;87.70;;;;;;5055812;28;19919;-70
2021/04/04 00:20:00;;;;;;;;;;;0.30;87.90;;;;;;5055122;28;20229;-69
2021/04/04 00:22:26;;;;;;;;;;;0.20;88.40;;;;;;5054470;28;20249;-69
2021/04/04 00:24:51;;;;;;;;;;;0.20;88.20;;;;;;5053779;28;19909;-69
2021/04/04 00:27:17;;;;;;;;;;;0.20;88.10;;;;;;5056123;28;20298;-70
2021/04/04 00:29:45;;;;;;;;;;;0.30;87.70;;;;;;5055684;28;19923;-70
2021/04/04 00:32:10;;;;;;;;;;;0.30;87.90;;;;;;5055334;28;20225;-70
2021/04/04 00:34:36;;;;;;;;;;;0.20;87.80;;;;;;5055140;28;19910;-70
2021/04/04 00:37:01;;;;;;;;;;;0.10;87.90;;;;;;5056152;28;19924;-70
2021/04/04 00:39:29;;;;;;;;;;;0.00;88.50;;;;;;5054028;28;19920;-69
2021/04/04 00:41:55;;;;;;;;;;;0.00;88.90;;;;;;5055431;28;19920;-69
2021/04/04 00:44:23;;;;;;;;;;;-0.10;88.80;;;;;;5055768;28;19915;-69
2021/04/04 00:46:49;;;;;;;;;;;0.00;88.50;;;;;;5055754;28;19956;-70
2021/04/04 00:49:14;;;;;;;;;;;0.00;88.10;;;;;;5053997;28;19964;-69
2021/04/04 00:51:43;;;;;;;;;;;0.10;88.40;;;;;;5055533;28;19925;-70
2021/04/04 00:54:08;;;;;;;;;;;0.10;88.00;;;;;;5054219;28;19909;-69
2021/04/04 00:56:34;;;;;;;;;;;0.20;87.70;;;;;;5055152;28;19919;-70
2021/04/04 00:59:01;;;;;;;;;;;0.10;88.10;;;;;;5055421;28;19913;-70
2021/04/04 01:01:27;;;;;;;;;;;0.00;88.40;;;;;;5053887;28;19913;-70
2021/04/04 01:03:53;;;;;;;;;;;0.00;88.50;;;;;;5054156;28;19931;-70
2021/04/04 01:06:18;;;;;;;;;;;-0.10;88.50;;;;;;5055015;28;19920;-69
2021/04/04 01:08:44;;;;;;;;;;;-0.10;89.00;;;;;;5053738;28;19913;-68
2021/04/04 01:11:12;;;;;;;;;;;-0.10;89.00;;;;;;5054562;28;19924;-69
2021/04/04 01:13:55;;;;;;;;;;;-0.10;88.60;;;;;;5055847;28;20182;-70
2021/04/04 01:16:20;;;;;;;;;;;-0.10;88.50;;;;;;5055235;28;19928;-70
2021/04/04 01:18:56;;;;;;;;;;;-0.10;88.50;;;;;;5086941;28;19913;-68
2021/04/04 01:21:25;;;;;;;;;;;-0.10;88.80;;;;;;5052550;28;19956;-70
2021/04/04 01:23:55;;;;;;;;;;;-0.20;88.90;;;;;;5052341;28;19912;-69
2021/04/04 01:26:32;;;;;;;;;;;-0.20;89.00;;;;;;5053931;28;19916;-68
2021/04/04 01:29:03;;;;;;;;;;;-0.40;89.50;;;;;;5054056;28;20257;-68
2021/04/04 01:31:29;;;;;;;;;;;-0.40;90.00;;;;;;5053464;28;20282;-68
2021/04/04 01:33:56;;;;;;;;;;;-0.40;90.30;;;;;;5054551;28;19967;-68
2021/04/04 01:36:23;;;;;;;;;;;-0.30;90.00;;;;;;5054583;28;19913;-69
2021/04/04 01:38:48;;;;;;;;;;;-0.30;89.70;;;;;;5050332;28;19968;-70
2021/04/04 01:41:20;;;;;;;;;;;-0.30;89.80;;;;;;5054736;28;19909;-70
2021/04/04 01:43:47;;;;;;;;;;;-0.20;89.50;;;;;;5054440;28;19992;-70
2021/04/04 01:46:13;;;;;;;;;;;-0.20;89.20;;;;;;5054694;28;19924;-70
2021/04/04 01:48:40;;;;;;;;;;;-0.20;89.30;;;;;;5054559;28;19920;-70
2021/04/04 01:51:07;;;;;;;;;;;-0.20;89.30;;;;;;5054471;28;19916;-70
2021/04/04 01:53:33;;;;;;;;;;;-0.30;89.80;;;;;;5052263;28;19917;-69
2021/04/04 01:55:59;;;;;;;;;;;-0.30;89.90;;;;;;5053953;28;20245;-70
2021/04/04 01:58:25;;;;;;;;;;;-0.30;90.20;;;;;;5054612;28;19913;-68
2021/04/04 02:00:50;;;;;;;;;;;-0.30;90.00;;;;;;5041318;28;19913;-70
2021/04/04 02:03:18;;;;;;;;;;;-0.40;90.40;;;;;;5053399;28;19917;-69
2021/04/04 02:05:43;;;;;;;;;;;-0.50;90.80;;;;;;5058733;28;20299;-69
2021/04/04 02:08:10;;;;;;;;;;;-0.60;91.10;;;;;;5055405;28;19955;-70
2021/04/04 02:10:37;;;;;;;;;;;-0.60;91.10;;;;;;5054227;28;20268;-70
2021/04/04 02:13:03;;;;;;;;;;;-0.70;91.60;;;;;;5053719;28;19952;-68
2021/04/04 02:15:29;;;;;;;;;;;-0.70;91.80;;;;;;5058150;28;19952;-69
2021/04/04 02:17:54;;;;;;;;;;;-0.70;91.90;;;;;;5057772;28;20617;-69
2021/04/04 02:20:21;;;;;;;;;;;-0.80;92.00;;;;;;5057393;28;19970;-70
2021/04/04 02:22:47;;;;;;;;;;;-0.70;92.40;;;;;;5055642;28;19912;-70
2021/04/04 02:25:15;;;;;;;;;;;-0.70;92.40;;;;;;5054637;28;20332;-69
2021/04/04 02:27:41;;;;;;;;;;;-0.50;92.10;;;;;;5057914;28;20222;-69
2021/04/04 02:30:07;;;;;;;;;;;-0.60;92.00;;;;;;5057934;28;19923;-69
2021/04/04 02:32:45;;;;;;;;;;;-0.80;92.10;;;;;;5057588;28;19912;-70
2021/04/04 02:35:12;;;;;;;;;;;-1.00;92.50;;;;;;5058010;28;19913;-69
2021/04/04 02:37:38;;;;;;;;;;;-1.30;93.00;;;;;;5055362;28;19913;-70
2021/04/04 02:40:05;;;;;;;;;;;-1.50;93.60;;;;;;5057277;28;19944;-70
2021/04/04 02:42:35;;;;;;;;;;;-1.70;94.10;;;;;;5064170;28;19921;-70
2021/04/04 02:45:01;;;;;;;;;;;-1.90;94.30;;;;;;5056989;28;19966;-70
2021/04/04 02:47:37;;;;;;;;;;;-2.00;94.60;;;;;;5057757;28;20011;-70
2021/04/04 02:50:05;;;;;;;;;;;-2.00;95.20;;;;;;5057373;28;19939;-70
2021/04/04 02:52:33;;;;;;;;;;;-2.00;95.50;;;;;;5055537;28;19920;-69
2021/04/04 02:55:02;;;;;;;;;;;-1.80;95.70;;;;;;5055071;28;19974;-69
2021/04/04 02:57:29;;;;;;;;;;;-1.50;95.30;;;;;;5056612;28;19917;-69
2021/04/04 02:59:56;;;;;;;;;;;-1.30;94.50;;;;;;5055785;28;20027;-69
2021/04/04 03:02:22;;;;;;;;;;;-1.10;93.80;;;;;;5056859;28;19924;-69
2021/04/04 03:04:49;;;;;;;;;;;-1.00;93.30;;;;;;5057161;28;19921;-69
2021/04/04 03:07:16;;;;;;;;;;;-0.90;93.00;;;;;;5055792;28;20182;-69
2021/04/04 03:09:44;;;;;;;;;;;-0.90;93.10;;;;;;5056676;28;19913;-69
2021/04/04 03:12:10;;;;;;;;;;;-0.90;93.20;;;;;;5057235;28;19920;-69
2021/04/04 03:14:38;;;;;;;;;;;-0.90;93.40;;;;;;5056151;28;19924;-69
2021/04/04 03:17:04;;;;;;;;;;;-1.10;93.50;;;;;;5056707;28;20321;-69
2021/04/04 03:19:34;;;;;;;;;;;-1.10;93.70;;;;;;5057051;28;19913;-69
2021/04/04 03:22:01;;;;;;;;;;;-1.20;93.80;;;;;;5056414;28;20384;-70
2021/04/04 03:24:27;;;;;;;;;;;-1.30;94.10;;;;;;5055297;28;20000;-70
2021/04/04 03:26:56;;;;;;;;;;;-1.30;94.00;;;;;;5054986;28;20023;-70
2021/04/04 03:29:21;;;;;;;;;;;-1.40;94.00;;;;;;5055544;28;19963;-69
2021/04/04 03:31:47;;;;;;;;;;;-1.60;94.00;;;;;;5056045;28;19952;-69
2021/04/04 03:34:13;;;;;;;;;;;-1.80;94.40;;;;;;5055673;28;19913;-69
2021/04/04 03:36:39;;;;;;;;;;;-1.90;94.90;;;;;;5057288;28;19948;-69
2021/04/04 03:39:05;;;;;;;;;;;-2.00;95.30;;;;;;5055075;28;19913;-69
2021/04/04 03:41:31;;;;;;;;;;;-1.90;95.50;;;;;;5057150;28;19917;-70
2021/04/04 03:43:56;;;;;;;;;;;-1.90;95.70;;;;;;5056099;28;19920;-69
2021/04/04 03:46:24;;;;;;;;;;;-1.80;95.80;;;;;;5056670;28;19923;-69
2021/04/04 03:48:55;;;;;;;;;;;-1.60;95.80;;;;;;5055620;28;19920;-70
2021/04/04 03:51:24;;;;;;;;;;;-1.50;95.30;;;;;;5056549;28;20210;-69
2021/04/04 03:53:51;;;;;;;;;;;-1.40;94.80;;;;;;5055092;28;20015;-69
2021/04/04 03:56:20;;;;;;;;;;;-1.40;94.60;;;;;;5055673;28;19915;-70
2021/04/04 03:58:47;;;;;;;;;;;-1.40;94.50;;;;;;5055793;28;19920;-69
2021/04/04 04:01:13;;;;;;;;;;;-1.40;94.50;;;;;;5055595;28;19916;-69
2021/04/04 04:03:39;;;;;;;;;;;-1.60;94.60;;;;;;5055066;28;19912;-70
2021/04/04 04:06:08;;;;;;;;;;;-1.70;95.00;;;;;;5055127;28;20276;-70
2021/04/04 04:08:35;;;;;;;;;;;-1.80;95.10;;;;;;5053971;28;19913;-69
2021/04/04 04:11:01;;;;;;;;;;;-1.80;95.50;;;;;;5055884;28;19912;-69
2021/04/04 04:13:28;;;;;;;;;;;-1.90;95.40;;;;;;5055441;28;19916;-69
2021/04/04 04:15:53;;;;;;;;;;;-1.90;95.80;;;;;;5056015;28;19925;-69
2021/04/04 04:18:19;;;;;;;;;;;-2.00;95.60;;;;;;5055471;28;19920;-69
2021/04/04 04:20:45;;;;;;;;;;;-2.10;95.80;;;;;;5054428;28;19917;-67
2021/04/04 04:23:11;;;;;;;;;;;-2.10;95.80;;;;;;5053093;28;20190;-69
2021/04/04 04:25:37;;;;;;;;;;;-2.20;96.10;;;;;;5055111;28;19924;-68
2021/04/04 04:28:04;;;;;;;;;;;-2.20;96.00;;;;;;5054156;28;20286;-67
2021/04/04 04:30:30;;;;;;;;;;;-2.10;96.20;;;;;;5054813;28;20311;-68
2021/04/04 04:33:00;;;;;;;;;;;-2.10;96.30;;;;;;5055049;28;19912;-69
2021/04/04 04:35:33;;;;;;;;;;;-2.00;96.20;;;;;;5055412;28;20099;-70
2021/04/04 04:37:59;;;;;;;;;;;-2.00;96.30;;;;;;5053254;28;20209;-70
2021/04/04 04:40:26;;;;;;;;;;;-1.90;96.20;;;;;;5054906;28;19913;-69
2021/04/04 04:42:52;;;;;;;;;;;-1.80;96.30;;;;;;5055554;28;19909;-69
2021/04/04 04:45:24;;;;;;;;;;;-1.80;96.10;;;;;;5055268;28;19920;-69
2021/04/04 04:47:51;;;;;;;;;;;-1.70;96.00;;;;;;5054747;28;20008;-69
2021/04/04 04:50:17;;;;;;;;;;;-1.70;96.00;;;;;;5055221;28;19913;-70
2021/04/04 04:52:45;;;;;;;;;;;-1.60;95.90;;;;;;5054730;28;20264;-69
2021/04/04 04:55:11;;;;;;;;;;;-1.50;95.80;;;;;;5055438;28;19912;-69
2021/04/04 04:57:38;;;;;;;;;;;-1.40;95.50;;;;;;5054410;28;19971;-69
2021/04/04 05:00:08;;;;;;;;;;;-1.40;95.40;;;;;;5054504;28;20312;-69
2021/04/04 05:02:34;;;;;;;;;;;-1.40;95.20;;;;;;5054924;28;19912;-69
2021/04/04 05:05:00;;;;;;;;;;;-1.40;95.10;;;;;;5053488;28;19971;-69
2021/04/04 05:07:30;;;;;;;;;;;-1.30;94.90;;;;;;5053919;28;19940;-69
2021/04/04 05:09:56;;;;;;;;;;;-1.30;94.80;;;;;;5054180;28;19909;-68
2021/04/04 05:12:22;;;;;;;;;;;-1.30;94.80;;;;;;5054067;28;19955;-69
2021/04/04 05:14:48;;;;;;;;;;;-1.30;94.80;;;;;;5054791;28;19972;-69
2021/04/04 05:17:14;;;;;;;;;;;-1.30;94.80;;;;;;5054881;28;20628;-69
2021/04/04 05:19:39;;;;;;;;;;;-1.20;94.70;;;;;;5060814;28;20011;-70
2021/04/04 05:22:07;;;;;;;;;;;-1.10;94.60;;;;;;5054143;28;20209;-68
2021/04/04 05:24:32;;;;;;;;;;;-1.00;94.40;;;;;;5052854;28;19924;-69
2021/04/04 05:26:58;;;;;;;;;;;-1.00;94.20;;;;;;5054198;28;19917;-70
2021/04/04 05:29:23;;;;;;;;;;;-1.10;94.30;;;;;;5054651;28;19971;-69
2021/04/04 05:31:53;;;;;;;;;;;-1.10;94.40;;;;;;5054106;28;20218;-69
2021/04/04 05:34:20;;;;;;;;;;;-1.20;94.70;;;;;;5053806;28;19913;-69
2021/04/04 05:36:50;;;;;;;;;;;-1.10;94.80;;;;;;5052970;28;19919;-70
2021/04/04 05:39:16;;;;;;;;;;;-1.00;94.80;;;;;;5058728;28;20312;-70
2021/04/04 05:41:46;;;;;;;;;;;-1.00;94.70;;;;;;5054896;28;19917;-70
2021/04/04 05:44:13;;;;;;;;;;;-0.90;94.70;;;;;;5073412;28;19913;-70
2021/04/04 05:46:42;;;;;;;;;;;-0.90;94.70;;;;;;5055911;28;19925;-70
2021/04/04 05:49:23;;;;;;;;;;;-1.00;94.70;;;;;;5058003;28;20198;-70
2021/04/04 05:51:57;;;;;;;;;;;-1.00;94.90;;;;;;5057371;28;21524;-69
2021/04/04 05:54:32;;;;;;;;;;;-1.00;94.90;;;;;;5056649;28;19912;-68
2021/04/04 05:57:24;;;;;;;;;;;-1.00;94.90;;;;;;5055022;28;19983;-70
2021/04/04 06:00:19;;;;;;;;;;;-0.90;95.10;;;;;;5057086;28;20021;-70
2021/04/04 06:02:53;;;;;;;;;;;-0.80;94.90;;;;;;5048530;28;20169;-69
2021/04/04 06:05:29;;;;;;;;;;;-0.50;94.90;;;;;;5055949;28;19929;-70
2021/04/04 06:08:07;;;;;;;;;;;-0.30;94.40;;;;;;5045748;28;19971;-70
2021/04/04 06:10:39;;;;;;;;;;;-0.10;93.90;;;;;;5057184;28;19932;-70
2021/04/04 06:13:23;;;;;;;;;;;0.20;93.20;;;;;;5056946;28;19951;-70
2021/04/04 06:15:55;;;;;;;;;;;0.50;92.30;;;;;;5057515;28;19925;-70
2021/04/04 06:18:30;;;;;;;;;;;0.70;91.70;;;;;;5090098;28;19936;-71
2021/04/04 06:21:11;;;;;;;;;;;1.30;91.20;;;;;;5090780;28;19991;-69
2021/04/04 06:23:40;;;;;;;;;;;2.10;89.70;;;;;;5055143;28;19908;-70
2021/04/04 06:26:24;;;;;;;;;;;3.00;86.40;;;;;;5058255;28;19913;-70
2021/04/04 06:29:08;;;;;;;;;;;3.60;82.30;;;;;;5057284;28;19920;-70
2021/04/04 06:31:54;;;;;;;;;;;3.60;79.70;;;;;;5057329;28;20297;-70
2021/04/04 06:34:25;;;;;;;;;;;3.30;80.10;;;;;;5054976;28;19920;-69
2021/04/04 06:37:15;;;;;;;;;;;2.90;81.70;;;;;;5041028;28;19967;-70
2021/04/04 06:39:59;;;;;;;;;;;2.70;82.40;;;;;;5057567;28;19947;-70
2021/04/04 06:42:35;;;;;;;;;;;2.60;82.10;;;;;;5055984;28;19912;-70
2021/04/04 06:45:10;;;;;;;;;;;2.40;82.50;;;;;;5056043;28;19918;-70
2021/04/04 06:47:42;;;;;;;;;;;2.40;82.80;;;;;;5055661;28;19952;-70
2021/04/04 06:50:20;;;;;;;;;;;2.40;83.00;;;;;;5057667;28;19913;-70
2021/04/04 06:53:00;;;;;;;;;;;2.50;82.80;;;;;;5055393;28;20309;-70
2021/04/04 06:55:34;;;;;;;;;;;2.60;82.90;;;;;;5055593;28;19993;-70
2021/04/04 06:58:15;;;;;;;;;;;2.70;82.90;;;;;;5057094;28;19913;-69
2021/04/04 07:00:55;;;;;;;;;;;2.70;82.00;;;;;;5053624;28;19921;-70
2021/04/04 07:03:23;;;;;;;;;;;2.80;81.90;;;;;;5049755;28;19920;-70
2021/04/04 07:05:58;;;;;;;;;;;3.00;81.60;;;;;;5056964;28;19925;-70
2021/04/04 07:08:37;;;;;;;;;;;3.20;81.40;;;;;;5055880;28;20225;-68
2021/04/04 07:11:05;;;;;;;;;;;3.30;81.50;;;;;;5055596;28;20310;-70
2021/04/04 07:13:38;;;;;;;;;;;3.50;81.80;;;;;;5055935;28;19912;-70
2021/04/04 07:16:22;;;;;;;;;;;3.60;81.70;;;;;;5052804;28;19928;-69
2021/04/04 07:19:07;;;;;;;;;;;3.80;81.70;;;;;;5051965;28;20361;-68
2021/04/04 07:21:41;;;;;;;;;;;4.00;81.60;;;;;;5045741;28;19921;-68
2021/04/04 07:24:10;;;;;;;;;;;4.10;81.50;;;;;;5053248;28;19971;-69
2021/04/04 07:26:51;;;;;;;;;;;4.20;80.00;;;;;;5056213;28;19924;-71
2021/04/04 07:29:35;;;;;;;;;;;4.20;78.90;;;;;;5089145;28;19920;-72
2021/04/04 07:32:15;;;;;;;;;;;4.30;78.90;;;;;;5056092;28;19913;-71
2021/04/04 07:34:44;;;;;;;;;;;4.40;78.40;;;;;;5085834;28;19909;-71
2021/04/04 07:37:24;;;;;;;;;;;4.50;78.30;;;;;;5055188;28;19921;-71
2021/04/04 07:40:08;;;;;;;;;;;4.60;77.90;;;;;;5043579;28;19913;-70
2021/04/04 07:42:37;;;;;;;;;;;4.60;77.60;;;;;;5055805;28;19935;-70
2021/04/04 07:45:15;;;;;;;;;;;4.60;78.10;;;;;;5054148;28;19935;-71
2021/04/04 07:47:43;;;;;;;;;;;4.70;77.70;;;;;;5055616;28;19913;-70
2021/04/04 07:50:10;;;;;;;;;;;4.80;77.90;;;;;;5056188;28;19916;-71
2021/04/04 07:52:42;;;;;;;;;;;5.00;77.70;;;;;;5055288;28;19966;-71
2021/04/04 07:55:40;;;;;;;;;;;5.20;78.10;;;;;;5054690;28;19913;-70
2021/04/04 07:58:24;;;;;;;;;;;5.40;77.30;;;;;;5035138;28;19913;-71
2021/04/04 08:00:56;;;;;;;;;;;5.40;76.60;;;;;;5054493;28;19919;-71
2021/04/04 08:03:27;;;;;;;;;;;5.50;76.70;;;;;;5055805;28;19920;-70
2021/04/04 08:05:52;;;;;;;;;;;5.60;76.60;;;;;;5054736;28;19928;-71
2021/04/04 08:08:35;;;;;;;;;;;5.70;76.00;;;;;;5054365;28;20217;-71
2021/04/04 08:11:01;;;;;;;;;;;5.90;75.70;;;;;;5055047;28;19913;-70
2021/04/04 08:14:03;;;;;;;;;;;7.00;73.30;;;;;;5054339;28;20372;-71
2021/04/04 08:16:42;;;;;;;;;;;7.70;70.70;;;;;;5025833;28;19925;-71
2021/04/04 08:19:11;;;;;;;;;;;7.30;70.60;;;;;;5051628;28;20001;-71
2021/04/04 08:21:45;;;;;;;;;;;7.60;71.10;;;;;;5042192;28;20002;-71
2021/04/04 08:24:15;;;;;;;;;;;7.90;70.20;;;;;;5053315;28;20283;-71
2021/04/04 08:26:40;;;;;;;;;;;8.90;68.70;;;;;;5055579;28;20211;-71
2021/04/04 08:29:13;;;;;;;;;;;9.40;66.90;;;;;;5055208;28;19912;-71
2021/04/04 08:31:41;;;;;;;;;;;10.10;65.00;;;;;;5050707;28;20494;-71
2021/04/04 08:34:13;;;;;;;;;;;10.20;64.50;;;;;;5055680;28;19913;-71
2021/04/04 08:36:50;;;;;;;;;;;10.40;64.30;;;;;;5055786;28;19913;-71
2021/04/04 08:39:18;;;;;;;;;;;10.50;64.20;;;;;;5054267;28;19954;-71
2021/04/04 08:41:45;;;;;;;;;;;10.90;63.80;;;;;;5054612;28;19913;-70
2021/04/04 08:44:13;;;;;;;;;;;10.80;63.20;;;;;;5054395;28;19920;-71
2021/04/04 08:46:43;;;;;;;;;;;10.90;63.40;;;;;;5054769;28;19920;-71
2021/04/04 08:49:09;;;;;;;;;;;11.50;63.70;;;;;;5055552;28;20287;-71
2021/04/04 08:51:42;;;;;;;;;;;11.70;61.20;;;;;;5055033;28;19999;-71
2021/04/04 08:54:15;;;;;;;;;;;11.10;62.30;;;;;;5053314;28;19913;-71
2021/04/04 08:56:42;;;;;;;;;;;11.40;63.20;;;;;;5057862;28;20220;-70
2021/04/04 08:59:08;;;;;;;;;;;12.10;61.10;;;;;;5054731;28;20256;-70
2021/04/04 09:01:38;;;;;;;;;;;12.20;61.10;;;;;;5053497;28;19947;-70
2021/04/04 09:04:08;;;;;;;;;;;12.30;60.20;;;;;;5054471;28;19995;-70
2021/04/04 09:06:38;;;;;;;;;;;12.20;60.80;;;;;;5054855;28;20221;-70
2021/04/04 09:09:12;;;;;;;;;;;13.00;59.60;;;;;;5051228;28;20625;-70
2021/04/04 09:11:38;;;;;;;;;;;13.60;58.30;;;;;;5054848;28;20186;-70
2021/04/04 09:14:04;;;;;;;;;;;13.70;57.60;;;;;;5053634;28;19973;-69
2021/04/04 09:16:29;;;;;;;;;;;13.90;57.40;;;;;;5050954;28;19921;-70
2021/04/04 09:18:55;;;;;;;;;;;14.00;55.80;;;;;;5052936;28;20234;-70
2021/04/04 09:21:21;;;;;;;;;;;14.20;55.80;;;;;;5054804;28;19913;-70
2021/04/04 09:23:48;;;;;;;;;;;13.90;57.40;;;;;;5052643;28;19913;-70
2021/04/04 09:26:21;;;;;;;;;;;13.90;57.20;;;;;;5054648;28;19916;-69
2021/04/04 09:28:48;;;;;;;;;;;13.80;57.00;;;;;;5053685;28;19925;-70
2021/04/04 09:31:23;;;;;;;;;;;14.00;57.60;;;;;;5053601;28;19995;-70
2021/04/04 09:33:51;;;;;;;;;;;14.30;57.00;;;;;;5053945;28;20039;-70
2021/04/04 09:36:19;;;;;;;;;;;14.40;55.90;;;;;;5054517;28;20243;-70
2021/04/04 09:38:46;;;;;;;;;;;15.10;55.30;;;;;;5052775;28;19916;-70
2021/04/04 09:41:12;;;;;;;;;;;15.00;55.70;;;;;;5054591;28;20294;-70
2021/04/04 09:44:10;;;;;;;;;;;15.30;54.40;;;;;;5053538;28;20389;-70
2021/04/04 09:46:52;;;;;;;;;;;15.10;54.70;;;;;;5034789;28;19921;-70
2021/04/04 09:49:38;;;;;;;;;;;15.90;50.40;;;;;;5059985;28;20324;-70
2021/04/04 09:52:29;;;;;;;;;;;16.00;48.70;;;;;;5053451;28;19970;-69
2021/04/04 09:55:01;;;;;;;;;;;16.40;47.90;;;;;;5053803;28;19920;-70
2021/04/04 09:57:27;;;;;;;;;;;16.60;47.20;;;;;;5054864;28;19917;-70
2021/04/04 09:59:52;;;;;;;;;;;15.80;47.80;;;;;;5059057;28;19966;-69
2021/04/04 10:02:32;;;;;;;;;;;15.40;49.10;;;;;;5053450;28;19913;-70
2021/04/04 10:04:58;;;;;;;;;;;15.10;49.80;;;;;;5053419;28;19945;-70
2021/04/04 10:07:30;;;;;;;;;;;14.40;50.60;;;;;;5051372;28;19963;-69
2021/04/04 10:09:57;;;;;;;;;;;13.70;51.50;;;;;;5053464;28;20004;-68
2021/04/04 10:12:22;;;;;;;;;;;14.00;50.50;;;;;;5053960;28;19962;-68
2021/04/04 10:15:01;;;;;;;;;;;14.20;50.00;;;;;;5053698;28;19921;-68
2021/04/04 10:17:26;;;;;;;;;;;14.40;50.20;;;;;;5054397;28;19923;-68
2021/04/04 10:19:56;;;;;;;;;;;14.70;49.90;;;;;;5053286;28;19913;-67
2021/04/04 10:22:22;;;;;;;;;;;14.80;50.50;;;;;;5052614;28;19916;-69
2021/04/04 10:24:48;;;;;;;;;;;14.80;49.90;;;;;;5054368;28;19919;-69
2021/04/04 10:27:16;;;;;;;;;;;14.60;50.00;;;;;;5053344;28;20225;-69
2021/04/04 10:29:42;;;;;;;;;;;14.70;50.20;;;;;;5050846;28;19966;-68
2021/04/04 10:32:07;;;;;;;;;;;15.40;47.70;;;;;;5052840;28;20255;-69
2021/04/04 10:34:42;;;;;;;;;;;15.40;47.20;;;;;;5054110;28;19913;-69
2021/04/04 10:37:08;;;;;;;;;;;15.20;48.50;;;;;;5057253;28;19921;-68
2021/04/04 10:39:34;;;;;;;;;;;14.90;49.70;;;;;;5056375;28;20309;-69
2021/04/04 10:42:19;;;;;;;;;;;15.80;49.10;;;;;;5057223;28;19913;-68
2021/04/04 10:44:45;;;;;;;;;;;16.60;47.50;;;;;;5057012;28;20333;-68
2021/04/04 10:47:18;;;;;;;;;;;16.50;48.20;;;;;;5056895;28;19921;-65
2021/04/04 10:49:44;;;;;;;;;;;16.40;48.80;;;;;;5060423;28;19978;-69
2021/04/04 10:52:09;;;;;;;;;;;15.60;49.40;;;;;;5056739;28;20319;-68
2021/04/04 10:54:35;;;;;;;;;;;15.40;50.00;;;;;;5066810;28;19912;-69
2021/04/04 10:57:01;;;;;;;;;;;15.90;50.00;;;;;;5061802;28;20249;-69
2021/04/04 10:59:27;;;;;;;;;;;16.50;49.60;;;;;;5060441;28;20007;-69
2021/04/04 11:01:52;;;;;;;;;;;16.60;47.90;;;;;;5057222;28;19909;-68
2021/04/04 11:04:18;;;;;;;;;;;16.40;48.20;;;;;;5056424;28;20314;-69
2021/04/04 11:06:43;;;;;;;;;;;15.70;48.20;;;;;;5057248;28;19913;-69
2021/04/04 11:09:09;;;;;;;;;;;15.50;49.40;;;;;;5051791;28;19917;-69
2021/04/04 11:11:35;;;;;;;;;;;15.60;49.00;;;;;;5056366;28;19913;-70
2021/04/04 11:14:01;;;;;;;;;;;15.50;49.20;;;;;;5063578;28;19913;-69
2021/04/04 11:16:27;;;;;;;;;;;15.90;48.30;;;;;;5100013;28;19975;-68
2021/04/04 11:18:55;;;;;;;;;;;16.10;48.30;;;;;;5062886;28;19918;-69
2021/04/04 11:21:26;;;;;;;;;;;15.90;48.50;;;;;;5070568;28;19912;-66
2021/04/04 11:23:52;;;;;;;;;;;16.10;48.00;;;;;;5051992;28;19921;-68
2021/04/04 11:26:32;;;;;;;;;;;16.10;47.60;;;;;;5055296;28;19979;-68
2021/04/04 11:29:10;;;;;;;;;;;16.50;46.40;;;;;;5056005;28;19913;-68
2021/04/04 11:31:41;;;;;;;;;;;16.80;47.50;;;;;;5052320;28;20306;-67
2021/04/04 11:34:24;;;;;;;;;;;17.00;46.10;;;;;;5053146;28;20364;-67
2021/04/04 11:36:50;;;;;;;;;;;16.80;46.30;;;;;;5055330;28;19931;-69
2021/04/04 11:39:17;;;;;;;;;;;16.40;45.60;;;;;;5054231;28;19912;-69
2021/04/04 11:41:50;;;;;;;;;;;15.30;48.00;;;;;;5057877;28;19912;-69
2021/04/04 11:44:23;;;;;;;;;;;15.00;48.30;;;;;;5066079;28;20019;-69
2021/04/04 11:46:50;;;;;;;;;;;14.90;47.90;;;;;;5055610;28;19924;-69
2021/04/04 11:49:34;;;;;;;;;;;14.50;48.70;;;;;;5055215;28;19913;-70
2021/04/04 11:52:22;;;;;;;;;;;14.50;50.00;;;;;;5053233;28;19912;-69
2021/04/04 11:54:51;;;;;;;;;;;14.90;48.60;;;;;;5060509;28;20229;-69
2021/04/04 11:57:20;;;;;;;;;;;14.80;49.40;;;;;;5069171;28;20222;-69
2021/04/04 11:59:48;;;;;;;;;;;14.90;49.30;;;;;;5088997;28;19935;-69
2021/04/04 12:02:15;;;;;;;;;;;14.70;49.90;;;;;;5056231;28;19912;-69
2021/04/04 12:04:48;;;;;;;;;;;14.60;50.60;;;;;;5055131;28;19909;-70
2021/04/04 12:07:14;;;;;;;;;;;15.00;48.10;;;;;;5055140;28;19912;-68
2021/04/04 12:09:41;;;;;;;;;;;15.00;48.50;;;;;;5055300;28;20305;-70
2021/04/04 12:12:07;;;;;;;;;;;15.40;49.70;;;;;;5055646;28;19967;-71
2021/04/04 12:14:50;;;;;;;;;;;15.90;49.20;;;;;;5056370;28;19920;-70
2021/04/04 12:17:17;;;;;;;;;;;15.80;48.50;;;;;;5038884;28;19956;-69
2021/04/04 12:19:43;;;;;;;;;;;15.80;48.60;;;;;;5054784;28;20228;-69
2021/04/04 12:22:12;;;;;;;;;;;15.70;46.30;;;;;;5052734;28;20019;-68
2021/04/04 12:24:45;;;;;;;;;;;15.10;47.90;;;;;;5055120;28;20213;-68
2021/04/04 12:27:14;;;;;;;;;;;14.90;50.30;;;;;;5051512;28;19971;-69
2021/04/04 12:29:39;;;;;;;;;;;14.60;49.50;;;;;;5055178;28;19963;-70
2021/04/04 12:32:06;;;;;;;;;;;14.30;50.40;;;;;;5055905;28;20392;-67
2021/04/04 12:34:38;;;;;;;;;;;13.80;50.30;;;;;;5053299;28;20264;-68
2021/04/04 12:37:08;;;;;;;;;;;13.40;50.10;;;;;;5047068;28;19916;-68
2021/04/04 12:39:33;;;;;;;;;;;12.80;53.70;;;;;;5055901;28;19927;-68
2021/04/04 12:41:59;;;;;;;;;;;13.50;52.00;;;;;;5055456;28;19917;-69
2021/04/04 12:44:34;;;;;;;;;;;14.20;51.90;;;;;;5055848;28;19916;-68
2021/04/04 12:47:10;;;;;;;;;;;14.60;51.30;;;;;;5067467;28;19912;-68
2021/04/04 12:49:38;;;;;;;;;;;15.00;50.00;;;;;;5055283;28;20003;-68
2021/04/04 12:52:07;;;;;;;;;;;15.20;48.30;;;;;;5054172;28;20003;-68
2021/04/04 12:54:33;;;;;;;;;;;15.00;49.10;;;;;;5053219;28;19940;-68
2021/04/04 12:57:00;;;;;;;;;;;14.70;49.30;;;;;;5054304;28;19955;-67
2021/04/04 12:59:25;;;;;;;;;;;14.20;49.60;;;;;;5055150;28;19917;-68
2021/04/04 13:01:54;;;;;;;;;;;13.60;50.20;;;;;;5054824;28;19921;-68
2021/04/04 13:04:21;;;;;;;;;;;13.70;50.00;;;;;;5053123;28;19917;-67
2021/04/04 13:06:47;;;;;;;;;;;14.10;52.00;;;;;;5054992;28;19917;-68
2021/04/04 13:09:13;;;;;;;;;;;14.40;52.60;;;;;;5054455;28;19913;-68
2021/04/04 13:11:40;;;;;;;;;;;14.80;48.30;;;;;;5056207;28;19913;-68
2021/04/04 13:14:13;;;;;;;;;;;14.70;48.00;;;;;;5072496;28;19922;-67
2021/04/04 13:16:38;;;;;;;;;;;14.30;49.00;;;;;;5051987;28;19939;-70
2021/04/04 13:19:06;;;;;;;;;;;13.80;49.10;;;;;;5055162;28;21222;-70
2021/04/04 13:21:33;;;;;;;;;;;13.70;51.00;;;;;;5055910;28;19913;-70
2021/04/04 13:24:03;;;;;;;;;;;13.70;49.20;;;;;;5054104;28;20233;-70
2021/04/04 13:26:35;;;;;;;;;;;13.70;49.60;;;;;;5044045;28;19921;-70
2021/04/04 13:29:11;;;;;;;;;;;13.50;48.60;;;;;;5054780;28;20213;-70
2021/04/04 13:31:36;;;;;;;;;;;13.80;48.80;;;;;;5055810;28;19913;-70
2021/04/04 13:34:14;;;;;;;;;;;13.50;48.60;;;;;;5055736;28;19924;-70
2021/04/04 13:36:48;;;;;;;;;;;14.10;50.20;;;;;;5054333;28;19913;-70
2021/04/04 13:39:17;;;;;;;;;;;14.60;47.40;;;;;;5053561;28;19916;-70
2021/04/04 13:41:44;;;;;;;;;;;14.90;47.80;;;;;;5055629;28;20048;-70
2021/04/04 13:44:13;;;;;;;;;;;15.20;46.10;;;;;;5054522;28;19913;-70
2021/04/04 13:46:40;;;;;;;;;;;15.20;46.60;;;;;;5055312;28;20009;-69
2021/04/04 13:49:06;;;;;;;;;;;14.70;46.20;;;;;;5055391;28;20294;-69
2021/04/04 13:51:33;;;;;;;;;;;14.20;46.90;;;;;;5055468;28;19999;-69
2021/04/04 13:54:06;;;;;;;;;;;14.00;47.70;;;;;;5053931;28;19923;-69
2021/04/04 13:56:33;;;;;;;;;;;14.20;46.00;;;;;;5039659;28;19912;-70
2021/04/04 13:59:12;;;;;;;;;;;14.20;48.50;;;;;;5065410;28;19920;-69
2021/04/04 14:01:43;;;;;;;;;;;14.40;46.90;;;;;;5075509;28;20277;-70
2021/04/04 14:04:13;;;;;;;;;;;14.70;47.40;;;;;;5054345;28;19913;-70
2021/04/04 14:06:41;;;;;;;;;;;14.40;46.20;;;;;;5055154;28;20131;-70
2021/04/04 14:09:11;;;;;;;;;;;14.30;46.50;;;;;;5056173;28;20286;-69
2021/04/04 14:11:37;;;;;;;;;;;15.20;46.00;;;;;;5059334;28;19993;-69
2021/04/04 14:14:03;;;;;;;;;;;15.40;45.40;;;;;;5058925;28;19913;-70
2021/04/04 14:16:29;;;;;;;;;;;15.20;44.90;;;;;;5039686;28;19931;-69
2021/04/04 14:18:54;;;;;;;;;;;14.50;44.30;;;;;;5039346;28;20004;-69
2021/04/04 14:21:20;;;;;;;;;;;14.30;43.90;;;;;;5039280;28;19919;-70
2021/04/04 14:23:45;;;;;;;;;;;14.50;45.50;;;;;;5038059;28;19949;-70
2021/04/04 14:26:11;;;;;;;;;;;14.40;44.70;;;;;;5056686;28;19924;-69
2021/04/04 14:28:37;;;;;;;;;;;15.20;44.60;;;;;;5058670;28;19919;-70
2021/04/04 14:31:06;;;;;;;;;;;15.10;43.30;;;;;;5059065;28;20122;-70
2021/04/04 14:33:32;;;;;;;;;;;15.50;43.90;;;;;;5059054;28;20003;-70
2021/04/04 14:35:57;;;;;;;;;;;15.60;43.20;;;;;;5058461;28;20233;-70